Data for 05/08/2008

Time Sea-Level Adjusted Pressure Absolute Pressure Temperature Relative Humidity Dew Point   
(mb) (inHg) (mb) (inHg) (C) (F) (%) (C) (F)
00:05 1013 29.91 843 24.89 5.4 41.6 87 3.4 38.2
00:10 1014 29.94 843 24.89 5.2 41.4 87 3.3 37.9
00:15 1014 29.94 843 24.89 5.3 41.5 86 3.2 37.8
00:20 1014 29.94 843 24.89 5.3 41.5 87 3.3 37.9
00:25 1014 29.94 843 24.89 5.2 41.4 87 3.2 37.8
00:30 1014 29.94 843 24.89 5.2 41.4 87 3.2 37.8
00:35 1014 29.94 843 24.89 5.5 41.8 85 3.2 37.7
00:40 1014 29.94 843 24.89 5.8 42.5 83 3.2 37.7
00:45 1013 29.91 843 24.89 5.6 42.1 84 3.1 37.6
00:50 1013 29.91 843 24.89 5.6 42.2 83 3.1 37.5
00:55 1014 29.94 843 24.89 5.7 42.3 83 3.1 37.5
01:00 1013 29.91 843 24.89 5.7 42.3 83 3 37.5
01:05 1013 29.91 843 24.89 5.6 42.2 83 3 37.4
01:10 1013 29.91 843 24.89 5.7 42.2 83 3 37.5
01:15 1013 29.91 843 24.89 5.7 42.2 83 3.1 37.6
01:20 1013 29.91 843 24.89 5.7 42.3 84 3.2 37.7
01:25 1013 29.91 843 24.89 5.7 42.2 84 3.3 37.9
01:30 1013 29.91 843 24.89 5.7 42.3 84 3.3 38
01:35 1013 29.91 843 24.89 5.9 42.6 84 3.4 38.2
01:40 1013 29.91 843 24.89 5.9 42.6 84 3.4 38.2
01:45 1013 29.91 843 24.89 5.9 42.6 85 3.5 38.3
01:50 1013 29.91 843 24.89 5.8 42.4 85 3.5 38.3
01:55 1014 29.94 843 24.89 5.7 42.3 86 3.5 38.4
02:00 1014 29.94 843 24.89 5.5 42 87 3.5 38.2
02:05 1014 29.94 843 24.89 5.3 41.5 88 3.4 38.1
02:10 1014 29.94 843 24.89 5.1 41.2 89 3.4 38.2
02:15 1014 29.94 843 24.89 5 40.9 89 3.4 38.1
02:20 1014 29.94 843 24.89 5 41 89 3.3 38
02:25 1013 29.91 843 24.89 5.1 41.1 87 3.1 37.6
02:30 1013 29.91 843 24.89 5.3 41.5 85 2.9 37.2
02:35 1013 29.91 843 24.89 5.3 41.5 83 2.6 36.7
02:40 1013 29.91 843 24.89 5.5 41.8 83 2.8 37.1
02:45 1013 29.91 843 24.89 5.5 41.9 83 2.8 37.1
02:50 1013 29.91 843 24.89 5.4 41.7 83 2.8 37
02:55 1013 29.91 843 24.89 5.4 41.7 83 2.7 36.8
03:00 1013 29.91 843 24.89 5.4 41.8 82 2.6 36.8
03:05 1013 29.91 843 24.89 5.5 41.9 81 2.6 36.7
03:10 1013 29.91 843 24.89 5.3 41.6 83 2.7 36.9
03:15 1013 29.91 843 24.89 5.2 41.3 84 2.8 37
03:20 1013 29.91 843 24.89 5.2 41.4 84 2.8 37
03:25 1013 29.91 842 24.86 5.3 41.5 83 2.7 36.8
03:30 1013 29.91 842 24.86 5.3 41.5 82 2.4 36.3
03:35 1013 29.91 842 24.86 5.2 41.4 81 2.2 35.9
03:40 1013 29.91 842 24.86 5.1 41.2 82 2.4 36.3
03:45 1013 29.91 842 24.86 4.6 40.4 85 2.3 36.2
03:50 1013 29.91 842 24.86 4.4 39.9 86 2.2 35.9
03:55 1013 29.91 842 24.86 4.4 39.9 84 1.9 35.4
04:00 1013 29.91 842 24.86 4.6 40.3 84 2.1 35.8
04:05 1013 29.91 842 24.86 4.7 40.5 83 2.2 35.9
04:10 1013 29.91 842 24.86 4.5 40.2 84 2.1 35.7
04:15 1013 29.91 843 24.89 4.5 40 84 2.1 35.7
04:20 1013 29.91 842 24.86 4.4 40 85 2 35.7
04:25 1013 29.91 842 24.86 4.4 39.9 84 2 35.6
04:30 1013 29.91 842 24.86 4.3 39.7 85 2 35.6
04:35 1013 29.91 842 24.86 4.1 39.5 86 2.1 35.7
04:40 1013 29.91 842 24.86 4 39.3 87 2 35.7
04:45 1013 29.91 842 24.86 4.1 39.4 86 2 35.7
04:50 1013 29.91 842 24.86 4.2 39.6 86 2 35.6
04:55 1013 29.91 842 24.86 4.3 39.7 85 2 35.7
05:00 1013 29.91 842 24.86 4.4 40 84 2 35.7
05:05 1013 29.91 842 24.86 4.4 39.9 85 2.1 35.8
05:10 1013 29.91 842 24.86 4.1 39.4 87 2.1 35.7
05:15 1013 29.91 842 24.86 3.8 38.8 88 1.9 35.4
05:20 1013 29.91 842 24.86 4 39.1 87 2 35.7
05:25 1013 29.91 842 24.86 4.2 39.5 87 2.1 35.9
05:30 1013 29.91 842 24.86 4.2 39.5 87 2.2 36
05:35 1013 29.91 842 24.86 4.2 39.5 87 2.3 36.1
05:40 1013 29.91 842 24.86 4.2 39.6 87 2.3 36.1
05:45 1013 29.91 842 24.86 4.4 39.8 87 2.3 36.2
05:50 1013 29.91 842 24.86 4.4 40 86 2.3 36.2
05:55 1013 29.91 842 24.86 4.4 39.9 87 2.4 36.3
06:00 1013 29.91 842 24.86 4.3 39.7 87 2.3 36.2
06:05 1013 29.91 842 24.86 4.2 39.5 87 2.3 36.1
06:10 1013 29.91 842 24.86 4.2 39.5 87 2.2 36
06:15 1013 29.91 842 24.86 4 39.2 88 2.2 35.9
06:20 1013 29.91 842 24.86 3.7 38.7 89 2 35.7
06:25 1013 29.91 842 24.86 3.6 38.4 89 2 35.6
06:30 1013 29.91 842 24.86 3.6 38.4 89 2 35.5
06:35 1013 29.91 842 24.86 3.6 38.4 89 2 35.6
06:40 1013 29.91 842 24.86 3.5 38.2 90 2 35.5
06:45 1013 29.91 842 24.86 3.4 38.1 91 2 35.6
06:50 1013 29.91 842 24.86 3.4 38.2 91 2.1 35.7
06:55 1013 29.91 842 24.86 3.7 38.7 90 2.2 36
07:00 1013 29.91 842 24.86 4 39.2 89 2.4 36.3
07:05 1013 29.91 842 24.86 4 39.2 89 2.3 36.1
07:10 1013 29.91 842 24.86 3.9 38.9 89 2.2 36
07:15 1013 29.91 842 24.86 4.1 39.3 89 2.4 36.2
07:20 1013 29.91 842 24.86 4.2 39.5 89 2.4 36.4
07:25 1013 29.91 842 24.86 4.1 39.4 88 2.3 36.2
07:30 1013 29.91 842 24.86 4.1 39.4 88 2.3 36.1
07:35 1013 29.91 842 24.86 4.2 39.5 88 2.3 36.2
07:40 1013 29.91 842 24.86 4.3 39.7 88 2.5 36.5
07:45 1013 29.91 842 24.86 4.4 39.9 88 2.6 36.7
07:50 1013 29.91 842 24.86 4.5 40 88 2.7 36.8
07:55 1013 29.91 842 24.86 4.6 40.2 88 2.8 37
08:00 1013 29.91 842 24.86 4.8 40.7 87 2.9 37.2
08:05 1013 29.91 842 24.86 5.1 41.2 86 3 37.4
08:10 1013 29.91 842 24.86 5.1 41.2 86 3 37.3
08:15 1013 29.91 842 24.86 5.2 41.4 86 3 37.4
08:20 1013 29.91 842 24.86 5.6 42.1 84 3.2 37.7
08:25 1013 29.91 842 24.86 5.8 42.4 84 3.3 38
08:30 1013 29.91 842 24.86 6.1 43 82 3.3 38
08:35 1013 29.91 842 24.86 6.2 43.1 82 3.4 38.1
08:40 1013 29.91 842 24.86 6.2 43.2 82 3.4 38.1
08:45 1013 29.91 842 24.86 6.5 43.7 81 3.5 38.2
08:50 1013 29.91 842 24.86 6.9 44.5 78 3.3 38
08:55 1013 29.91 842 24.86 7.3 45.1 74 3 37.5
09:00 1013 29.91 842 24.86 7.7 45.9 73 3.3 37.9
09:05 1013 29.91 842 24.86 8.1 46.6 71 3.2 37.8
09:10 1013 29.91 842 24.86 8.2 46.8 69 2.8 37.1
09:15 1013 29.91 842 24.86 8.3 46.9 68 2.6 36.8
09:20 1013 29.91 842 24.86 7.6 45.7 69 2.4 36.3
09:25 1013 29.91 842 24.86 7.8 46.1 69 2.4 36.4
09:30 1013 29.91 842 24.86 8.2 46.7 66 2.2 35.9
09:35 1013 29.91 842 24.86 8.6 47.4 64 2.2 35.9
09:40 1013 29.91 842 24.86 8.6 47.5 65 2.4 36.3
09:45 1013 29.91 842 24.86 7.8 46 66 1.8 35.3
09:50 1013 29.91 842 24.86 7.6 45.7 67 1.8 35.3
09:55 1013 29.91 842 24.86 8.5 47.3 64 2.2 35.9
10:00 1013 29.91 842 24.86 9.5 49.1 60 2.1 35.7
10:05 1013 29.91 842 24.86 9 48.2 60 1.8 35.3
10:10 1013 29.91 842 24.86 8.9 48 59 1.3 34.3
10:15 1013 29.91 842 24.86 8.5 47.4 62 1.6 35
10:20 1013 29.91 842 24.86 9.5 49.1 56 1.3 34.3
10:25 1013 29.91 842 24.86 8.9 48.1 59 1.5 34.6
10:30 1013 29.91 842 24.86 9.6 49.2 57 1.6 34.8
10:35 1013 29.91 842 24.86 10.6 51 52 1.2 34.2
10:40 1013 29.91 842 24.86 10.5 51 54 1.7 35
10:45 1013 29.91 842 24.86 10.8 51.5 52 1.3 34.3
10:50 1013 29.91 842 24.86 9.8 49.6 55 1.2 34.2
10:55 1013 29.91 842 24.86 10.4 50.7 53 1.4 34.5
11:00 1013 29.91 842 24.86 11.3 52.4 50 1.4 34.5
11:05 1013 29.91 842 24.86 11.4 52.5 51 1.7 35.1
11:10 1013 29.91 842 24.86 10.4 50.6 54 1.4 34.5
11:15 1013 29.91 842 24.86 9.5 49.1 56 1.3 34.3
11:20 1013 29.91 842 24.86 9.8 49.6 53 0.8 33.5
11:25 1013 29.91 842 24.86 9.5 49 56 1.1 34.1
11:30 1013 29.91 842 24.86 9.3 48.7 57 1.3 34.4
11:35 1013 29.91 842 24.86 9.8 49.7 53 0.8 33.4
11:40 1013 29.91 842 24.86 10.7 51.2 49 0.5 33
11:45 1013 29.91 842 24.86 11.4 52.5 47 0.7 33.2
11:50 1013 29.91 842 24.86 11.7 53.1 48 1 33.8
11:55 1013 29.91 842 24.86 12 53.6 47 1.2 34.1
12:00 1013 29.91 842 24.86 12 53.6 47 1 33.8
12:05 1013 29.91 842 24.86 11.2 52.1 48 0.6 33.1
12:10 1013 29.91 842 24.86 10.2 50.4 53 1.2 34.1
12:15 1013 29.91 842 24.86 10.7 51.2 52 1.2 34.2
12:20 1013 29.91 842 24.86 10.7 51.2 51 0.9 33.6
12:25 1012 29.88 842 24.86 10.4 50.8 50 0.5 33
12:30 1012 29.88 842 24.86 11.2 52.2 46 0.1 32.3
12:35 1012 29.88 842 24.86 11.7 53.1 46 0.6 33
12:40 1012 29.88 842 24.86 11.1 52.1 47 0.3 32.6
12:45 1012 29.88 842 24.86 11.4 52.6 45 -0.1 31.8
12:50 1012 29.88 841 24.83 12.8 55 33 -3.1 26.5
12:55 1012 29.88 841 24.83 11.9 53.4 48 1.3 34.4
13:00 1012 29.88 841 24.83 10.6 51.1 51 1.1 33.9
13:05 1012 29.88 841 24.83 10.1 50.2 55 1.6 34.8
13:10 1012 29.88 841 24.83 10.3 50.5 53 1.2 34.2
13:15 1012 29.88 841 24.83 10.5 51 52 1.1 34
13:20 1012 29.88 841 24.83 11.2 52.1 48 0.7 33.3
13:25 1012 29.88 841 24.83 11.9 53.5 45 0.3 32.6
13:30 1012 29.88 841 24.83 12.4 54.2 42 -0.1 31.8
13:35 1012 29.88 841 24.83 12.2 53.9 42 -0.3 31.4
13:40 1012 29.88 841 24.83 12.1 53.7 41 -0.6 30.9
13:45 1012 29.88 841 24.83 12 53.6 42 -0.5 31.1
13:50 1012 29.88 841 24.83 12.4 54.3 40 -0.7 30.7
13:55 1012 29.88 841 24.83 12.3 54.2 39 -1.2 29.9
14:00 1012 29.88 841 24.83 12.2 54 38 -1.6 29.1
14:05 1012 29.88 841 24.83 11.8 53.2 38 -2.2 28.1
14:10 1012 29.88 841 24.83 12.3 54.2 35 -2.8 27
14:15 1012 29.88 841 24.83 13.1 55.6 35 -2.1 28.2
14:20 1012 29.88 841 24.83 12.7 54.9 36 -1.9 28.6
14:25 1012 29.88 841 24.83 12.4 54.2 37 -1.8 28.8
14:30 1012 29.88 841 24.83 12.6 54.6 37 -1.7 28.9
14:35 1012 29.88 841 24.83 12.5 54.4 36 -2.2 28.1
14:40 1012 29.88 841 24.83 12.4 54.4 37 -1.8 28.7
14:45 1012 29.88 841 24.83 12.9 55.2 38 -1.1 30
14:50 1012 29.88 841 24.83 13.1 55.6 34 -2.3 27.9
14:55 1012 29.88 841 24.83 13 55.5 35 -2 28.3
15:00 1012 29.88 841 24.83 13.3 56 34 -2 28.4
15:05 1012 29.88 841 24.83 13.4 56 35 -1.9 28.6
15:10 1012 29.88 841 24.83 13.4 56 31 -3.3 26.1
15:15 1012 29.88 841 24.83 13.3 56 30 -3.7 25.3
15:20 1012 29.88 841 24.83 13.9 57 30 -3.4 25.9
15:25 1012 29.88 841 24.83 14.2 57.5 30 -3.2 26.2
15:30 1012 29.88 841 24.83 13.8 56.9 31 -2.9 26.7
15:35 1012 29.88 841 24.83 13.3 55.9 34 -2.4 27.8
15:40 1011 29.85 841 24.83 13.5 56.3 33 -2.4 27.7
15:45 1011 29.85 841 24.83 14 57.2 32 -2.5 27.4
15:50 1011 29.85 841 24.83 13.8 56.8 32 -2.6 27.4
15:55 1011 29.85 841 24.83 14.4 57.9 31 -2.4 27.7
16:00 1011 29.85 840 24.81 14.4 57.9 30 -2.9 26.8
16:05 1011 29.85 840 24.81 14.2 57.5 30 -3 26.6
16:10 1011 29.85 840 24.81 14.5 58.1 29 -3.5 25.8
16:15 1011 29.85 840 24.81 14.3 57.7 30 -3 26.6
16:20 1011 29.85 840 24.81 14.3 57.7 30 -2.8 27
16:25 1011 29.85 840 24.81 14.8 58.6 29 -3 26.6
16:30 1011 29.85 840 24.81 14.7 58.4 29 -3.1 26.4
16:35 1011 29.85 840 24.81 14.8 58.6 29 -3.1 26.4
16:40 1011 29.85 840 24.81 14.5 58.2 29 -3 26.6
16:45 1011 29.85 840 24.81 14.7 58.4 29 -2.9 26.7
16:50 1011 29.85 840 24.81 14.5 58.1 30 -2.9 26.8
16:55 1011 29.85 840 24.81 14.6 58.2 29 -3.3 26.1
17:00 1011 29.85 840 24.81 14.8 58.7 28 -3.3 26.1
17:05 1011 29.85 840 24.81 14.6 58.2 29 -3.2 26.3
17:10 1011 29.85 840 24.81 13.8 56.8 29 -3.7 25.3
17:15 1011 29.85 840 24.81 14.1 57.4 29 -3.5 25.7
17:20 1011 29.85 840 24.81 14.1 57.4 29 -3.5 25.6
17:25 1011 29.85 840 24.81 14.1 57.3 29 -3.6 25.6
17:30 1011 29.85 840 24.81 13.6 56.5 30 -3.4 25.8
17:35 1011 29.85 840 24.81 14.1 57.4 29 -3.6 25.5
17:40 1011 29.85 840 24.81 14.2 57.5 28 -4.2 24.5
17:45 1011 29.85 840 24.81 14.7 58.4 29 -3.3 26
17:50 1011 29.85 840 24.81 14.1 57.4 30 -2.9 26.7
17:55 1011 29.85 840 24.81 14.2 57.5 29 -3.4 25.8
18:00 1011 29.85 840 24.81 14.3 57.8 28 -3.7 25.3
18:05 1011 29.85 840 24.81 14.3 57.7 29 -3.5 25.6
18:10 1011 29.85 840 24.81 13.8 56.9 29 -3.8 25.2
18:15 1011 29.85 840 24.81 13.2 55.8 31 -3.6 25.5
18:20 1011 29.85 840 24.81 13.5 56.4 30 -3.7 25.4
18:25 1011 29.85 840 24.81 12.7 54.9 31 -4 24.8
18:30 1011 29.85 840 24.81 12.5 54.6 31 -4.2 24.4
18:35 1011 29.85 840 24.81 13.3 56 30 -4 24.8
18:40 1011 29.85 840 24.81 13.7 56.7 29 -3.9 25.1
18:45 1011 29.85 840 24.81 13.3 55.9 29 -4.2 24.4
18:50 1011 29.85 840 24.81 12.5 54.6 30 -4.5 23.9
18:55 1011 29.85 840 24.81 12.6 54.6 30 -4.3 24.3
19:00 1011 29.85 840 24.81 13.1 55.6 29 -4.5 24
19:05 1011 29.85 840 24.81 13.2 55.8 29 -4.5 24
19:10 1011 29.85 840 24.81 13.1 55.6 29 -4.4 24
19:15 1011 29.85 840 24.81 12.9 55.2 29 -4.8 23.3
19:20 1011 29.85 840 24.81 12.7 54.9 29 -4.7 23.5
19:25 1011 29.85 840 24.81 12.7 54.9 27 -5.6 22
19:30 1011 29.85 840 24.81 12.5 54.6 27 -5.8 21.5
19:35 1011 29.85 840 24.81 12.2 54 26 -6.8 19.7
19:40 1011 29.85 840 24.81 12 53.6 26 -7.1 19.2
19:45 1011 29.85 840 24.81 11.9 53.4 42 -0.6 31
19:50 1011 29.85 840 24.81 10.8 51.5 47 -0.1 31.8
19:55 1011 29.85 840 24.81 10.4 50.7 48 -0.1 31.8
20:00 1011 29.85 840 24.81 10.4 50.7 49 0.2 32.4
20:05 1011 29.85 840 24.81 10.3 50.5 51 0.6 33.1
20:10 1011 29.85 840 24.81 10.2 50.3 52 0.7 33.2
20:15 1011 29.85 841 24.83 10 49.9 51 0.4 32.8
20:20 1012 29.88 841 24.83 9.9 49.8 45 -1.4 29.4
20:25 1012 29.88 841 24.83 9.7 49.5 45 -1.7 29
20:30 1012 29.88 841 24.83 9.8 49.6 46 -1.3 29.6
20:35 1012 29.88 841 24.83 10 49.9 43 -1.9 28.6
20:40 1012 29.88 841 24.83 10.1 50.1 41 -2.5 27.5
20:45 1012 29.88 841 24.83 9.7 49.4 41 -2.8 26.9
20:50 1012 29.88 841 24.83 9.8 49.6 42 -2.7 27.2
20:55 1012 29.88 841 24.83 9.8 49.6 42 -2.3 27.8
21:00 1012 29.88 841 24.83 9.2 48.5 58 1.3 34.3
21:05 1012 29.88 841 24.83 7.8 46 62 1 33.7
21:10 1012 29.88 841 24.83 7.4 45.2 67 1.6 34.9
21:15 1012 29.88 841 24.83 7 44.5 69 1.7 35
21:20 1012 29.88 841 24.83 6.9 44.4 69 1.5 34.8
21:25 1012 29.88 841 24.83 6.9 44.4 69 1.7 35
21:30 1012 29.88 841 24.83 6.7 44 70 1.5 34.8
21:35 1012 29.88 842 24.86 6.8 44.2 69 1.5 34.7
21:40 1013 29.91 842 24.86 6.9 44.3 69 1.5 34.7
21:45 1013 29.91 842 24.86 6.8 44.2 69 1.4 34.6
21:50 1013 29.91 842 24.86 6.7 44.1 69 1.4 34.6
21:55 1013 29.91 842 24.86 6.6 43.8 70 1.5 34.6
22:00 1013 29.91 842 24.86 6.6 43.8 70 1.5 34.8
22:05 1013 29.91 842 24.86 6.6 43.9 71 1.7 35
22:10 1013 29.91 842 24.86 6.7 44.1 69 1.5 34.7
22:15 1013 29.91 842 24.86 6.7 44.1 70 1.7 35
22:20 1013 29.91 842 24.86 6.7 44.1 69 1.5 34.8
22:25 1013 29.91 842 24.86 6.7 44.1 72 2.1 35.7
22:30 1013 29.91 842 24.86 6.7 44 71 1.7 35.1
22:35 1013 29.91 842 24.86 6.5 43.7 72 1.8 35.3
22:40 1013 29.91 842 24.86 6.4 43.6 73 1.9 35.4
22:45 1013 29.91 842 24.86 6.3 43.4 74 2 35.6
22:50 1013 29.91 842 24.86 6.4 43.5 74 2.1 35.7
22:55 1013 29.91 842 24.86 6.3 43.3 74 2.1 35.7
23:00 1013 29.91 842 24.86 6.3 43.4 73 1.8 35.3
23:05 1013 29.91 842 24.86 6.3 43.4 68 0.9 33.6
23:10 1013 29.91 842 24.86 6.6 43.8 65 0.5 32.9
23:15 1013 29.91 843 24.89 6.9 44.4 50 -2.8 27
23:20 1013 29.91 843 24.89 6.4 43.5 65 0.3 32.5
23:25 1013 29.91 843 24.89 5.3 41.6 68 -0 31.9
23:30 1013 29.91 843 24.89 5.4 41.6 66 -0.6 31
23:35 1013 29.91 843 24.89 5.7 42.3 62 -1 30.3
23:40 1014 29.94 843 24.89 5.9 42.6 60 -1.3 29.7
23:45 1014 29.94 843 24.89 6 42.7 58 -1.7 28.9
23:50 1014 29.94 843 24.89 5.8 42.5 59 -1.5 29.3
23:55 1014 29.94 843 24.89 5.7 42.2 61 -1.1 29.9
24:00 1014 29.94 843 24.89 5.2 41.4 64 -1 30.2